createdAt,value
2016-11-02T00:00:08.368Z,1012.78
2016-11-02T00:00:49.026Z,1012.76
2016-11-02T00:01:29.702Z,1012.74
2016-11-02T00:02:10.805Z,1012.75
2016-11-02T00:02:51.531Z,1012.74
2016-11-02T00:03:32.163Z,1012.71
2016-11-02T00:04:12.870Z,1012.71
2016-11-02T00:04:53.575Z,1012.69
2016-11-02T00:05:34.227Z,1012.69
2016-11-02T00:06:14.931Z,1012.69
2016-11-02T00:06:55.600Z,1012.67
2016-11-02T00:07:36.222Z,1012.69
2016-11-02T00:08:16.915Z,1012.7
2016-11-02T00:08:57.631Z,1012.64
2016-11-02T00:09:38.265Z,1012.67
2016-11-02T00:10:18.948Z,1012.66
2016-11-02T00:10:59.644Z,1012.65
2016-11-02T00:11:40.339Z,1012.63
2016-11-02T00:12:20.997Z,1012.67
2016-11-02T00:13:01.741Z,1012.63
2016-11-02T00:13:42.443Z,1012.62
2016-11-02T00:14:23.081Z,1012.62
2016-11-02T00:15:03.819Z,1012.62
2016-11-02T00:15:44.494Z,1012.59
2016-11-02T00:16:25.167Z,1012.6
2016-11-02T00:17:05.871Z,1012.54
2016-11-02T00:17:46.589Z,1012.54
2016-11-02T00:18:27.254Z,1012.55
2016-11-02T00:19:07.968Z,1012.5
2016-11-02T00:19:48.588Z,1012.47
2016-11-02T00:20:29.302Z,1012.47
2016-11-02T00:21:09.976Z,1012.48
2016-11-02T00:21:50.647Z,1012.43
2016-11-02T00:22:31.325Z,1012.46
2016-11-02T00:23:12.022Z,1012.42
2016-11-02T00:23:52.693Z,1012.44
2016-11-02T00:24:33.373Z,1012.42
2016-11-02T00:25:14.046Z,1012.43
2016-11-02T00:25:54.761Z,1012.4
2016-11-02T00:26:35.428Z,1012.42
2016-11-02T00:27:16.097Z,1012.43
2016-11-02T00:27:56.791Z,1012.39
2016-11-02T00:28:37.438Z,1012.39
2016-11-02T00:29:18.146Z,1012.4
2016-11-02T00:29:58.820Z,1012.41
2016-11-02T00:30:39.502Z,1012.39
2016-11-02T00:31:20.177Z,1012.38
2016-11-02T00:32:00.827Z,1012.36
2016-11-02T00:32:41.524Z,1012.36
2016-11-02T00:33:22.198Z,1012.33
2016-11-02T00:34:02.881Z,1012.35
2016-11-02T00:34:43.574Z,1012.33
2016-11-02T00:35:24.211Z,1012.3
2016-11-02T00:36:04.832Z,1012.3
2016-11-02T00:36:45.535Z,1012.31
2016-11-02T00:37:26.197Z,1012.3
2016-11-02T00:38:06.871Z,1012.3
2016-11-02T00:38:47.531Z,1012.32
2016-11-02T00:39:28.243Z,1012.3
2016-11-02T00:40:08.981Z,1012.31
2016-11-02T00:40:49.645Z,1012.31
2016-11-02T00:41:30.380Z,1012.33
2016-11-02T00:42:10.991Z,1012.33
2016-11-02T00:42:51.723Z,1012.34
2016-11-02T00:43:32.419Z,1012.33
2016-11-02T00:44:13.125Z,1012.33
2016-11-02T00:44:53.800Z,1012.3
2016-11-02T00:45:34.475Z,1012.31
2016-11-02T00:46:15.182Z,1012.31
2016-11-02T00:46:55.855Z,1012.31
2016-11-02T00:47:37.312Z,1012.29
2016-11-02T00:48:17.178Z,1012.35
2016-11-02T00:48:57.879Z,1012.3
2016-11-02T00:49:38.575Z,1012.3
2016-11-02T00:50:19.226Z,1012.32
2016-11-02T00:50:59.947Z,1012.33
2016-11-02T00:51:40.578Z,1012.33
2016-11-02T00:52:21.245Z,1012.33
2016-11-02T00:53:01.964Z,1012.31
2016-11-02T00:53:42.677Z,1012.32
2016-11-02T00:54:23.357Z,1012.34
2016-11-02T00:55:04.072Z,1012.33
2016-11-02T00:55:44.760Z,1012.32
2016-11-02T00:56:25.424Z,1012.34
2016-11-02T00:57:06.148Z,1012.33
2016-11-02T00:57:46.826Z,1012.29
2016-11-02T00:58:27.514Z,1012.32
2016-11-02T00:59:08.206Z,1012.27
2016-11-02T00:59:48.860Z,1012.28
2016-11-02T01:00:29.507Z,1012.3
2016-11-02T01:01:10.139Z,1012.27
2016-11-02T01:01:50.826Z,1012.3
2016-11-02T01:02:31.518Z,1012.3
2016-11-02T01:03:12.213Z,1012.27
2016-11-02T01:03:52.899Z,1012.31
2016-11-02T01:04:33.598Z,1012.29
2016-11-02T01:05:14.306Z,1012.3
2016-11-02T01:05:55.026Z,1012.28
2016-11-02T01:06:35.675Z,1012.27
2016-11-02T01:07:16.378Z,1012.27
2016-11-02T01:07:57.818Z,1012.29
2016-11-02T01:08:37.733Z,1012.28
2016-11-02T01:09:18.414Z,1012.31
2016-11-02T01:09:59.088Z,1012.27
2016-11-02T01:10:39.778Z,1012.27
2016-11-02T01:11:20.473Z,1012.29
2016-11-02T01:12:01.122Z,1012.27
2016-11-02T01:12:41.825Z,1012.27
2016-11-02T01:13:22.497Z,1012.27
2016-11-02T01:14:03.190Z,1012.25
2016-11-02T01:14:43.882Z,1012.26
2016-11-02T01:15:24.558Z,1012.28
2016-11-02T01:16:05.287Z,1012.27
2016-11-02T01:16:45.985Z,1012.28
2016-11-02T01:17:26.678Z,1012.3
2016-11-02T01:18:07.350Z,1012.32
2016-11-02T01:18:48.016Z,1012.31
2016-11-02T01:19:28.724Z,1012.26
2016-11-02T01:20:09.456Z,1012.29
2016-11-02T01:20:50.096Z,1012.3
2016-11-02T01:21:30.766Z,1012.28
2016-11-02T01:22:11.481Z,1012.28
2016-11-02T01:22:52.181Z,1012.27
2016-11-02T01:23:32.874Z,1012.27
2016-11-02T01:24:13.583Z,1012.27
2016-11-02T01:24:54.321Z,1012.23
2016-11-02T01:25:35.007Z,1012.22
2016-11-02T01:26:15.727Z,1012.22
2016-11-02T01:26:56.386Z,1012.22
2016-11-02T01:27:37.086Z,1012.24
2016-11-02T01:28:17.764Z,1012.25
2016-11-02T01:28:58.436Z,1012.23
2016-11-02T01:29:39.151Z,1012.21
2016-11-02T01:30:19.831Z,1012.23
2016-11-02T01:31:00.538Z,1012.21
2016-11-02T01:31:41.228Z,1012.21
2016-11-02T01:32:21.898Z,1012.22
2016-11-02T01:33:02.551Z,1012.21
2016-11-02T01:33:43.262Z,1012.2
2016-11-02T01:34:23.944Z,1012.2
2016-11-02T01:35:04.623Z,1012.23
2016-11-02T01:35:45.303Z,1012.25
2016-11-02T01:36:25.957Z,1012.17
2016-11-02T01:37:06.696Z,1012.21
2016-11-02T01:37:47.384Z,1012.16
2016-11-02T01:38:28.031Z,1012.2
2016-11-02T01:39:08.694Z,1012.18
2016-11-02T01:39:49.368Z,1012.16
2016-11-02T01:40:30.060Z,1012.14
2016-11-02T01:41:10.695Z,1012.18
2016-11-02T01:41:51.396Z,1012.15
2016-11-02T01:42:32.067Z,1012.17
2016-11-02T01:43:12.782Z,1012.13
2016-11-02T01:43:53.453Z,1012.12
2016-11-02T01:44:34.085Z,1012.13
2016-11-02T01:45:14.767Z,1012.13
2016-11-02T01:45:55.412Z,1012.1
2016-11-02T01:46:36.048Z,1012.11
2016-11-02T01:47:16.687Z,1012.1
2016-11-02T01:47:57.365Z,1012.1
2016-11-02T01:48:38.042Z,1012.06
2016-11-02T01:49:18.735Z,1012.08
2016-11-02T01:49:59.389Z,1012.06
2016-11-02T01:50:40.108Z,1012.05
2016-11-02T01:51:20.846Z,1012.09
2016-11-02T01:52:01.467Z,1012.03
2016-11-02T01:52:42.182Z,1012.04
2016-11-02T01:53:22.834Z,1012.02
2016-11-02T01:54:03.513Z,1012.05
2016-11-02T01:54:44.245Z,1012
2016-11-02T01:55:24.884Z,1012.02
2016-11-02T01:56:05.550Z,1012.03
2016-11-02T01:56:46.183Z,1012.02
2016-11-02T01:57:26.868Z,1011.99
2016-11-02T01:58:07.622Z,1011.98
2016-11-02T01:58:48.305Z,1011.98
2016-11-02T01:59:28.940Z,1012.01
2016-11-02T02:00:09.657Z,1012.01
2016-11-02T02:00:50.307Z,1012
2016-11-02T02:01:30.982Z,1011.97
2016-11-02T02:02:11.654Z,1012
2016-11-02T02:02:52.330Z,1011.96
2016-11-02T02:03:33.030Z,1011.98
2016-11-02T02:04:13.648Z,1011.98
2016-11-02T02:04:54.356Z,1011.92
2016-11-02T02:05:35.096Z,1011.94
2016-11-02T02:06:15.767Z,1011.94
2016-11-02T02:06:56.504Z,1011.96
2016-11-02T02:07:37.161Z,1011.95
2016-11-02T02:08:17.858Z,1011.95
2016-11-02T02:08:58.588Z,1011.93
2016-11-02T02:09:39.323Z,1011.96
2016-11-02T02:10:20.048Z,1011.99
2016-11-02T02:11:00.770Z,1011.96
2016-11-02T02:11:41.511Z,1011.95
2016-11-02T02:12:22.212Z,1011.94
2016-11-02T02:13:02.914Z,1011.94
2016-11-02T02:13:43.588Z,1011.94
2016-11-02T02:14:24.292Z,1011.86
2016-11-02T02:15:05.006Z,1011.88
2016-11-02T02:15:45.680Z,1011.88
2016-11-02T02:16:26.352Z,1011.87
2016-11-02T02:17:07.072Z,1011.87
2016-11-02T02:17:47.744Z,1011.84
2016-11-02T02:18:28.404Z,1011.81
2016-11-02T02:19:09.058Z,1011.82
2016-11-02T02:19:49.741Z,1011.79
2016-11-02T02:20:31.368Z,1011.78
2016-11-02T02:21:11.062Z,1011.8
2016-11-02T02:21:51.741Z,1011.77
2016-11-02T02:22:32.461Z,1011.77
2016-11-02T02:23:13.175Z,1011.75
2016-11-02T02:23:53.834Z,1011.72
2016-11-02T02:24:34.515Z,1011.77
2016-11-02T02:25:15.204Z,1011.74
2016-11-02T02:25:55.896Z,1011.78
2016-11-02T02:26:36.564Z,1011.72
2016-11-02T02:27:17.260Z,1011.75
2016-11-02T02:27:57.985Z,1011.73
2016-11-02T02:28:38.706Z,1011.76
2016-11-02T02:29:19.440Z,1011.74
2016-11-02T02:30:00.164Z,1011.72
2016-11-02T02:30:40.832Z,1011.74
2016-11-02T02:31:21.488Z,1011.74
2016-11-02T02:32:02.226Z,1011.67
2016-11-02T02:32:42.940Z,1011.7
2016-11-02T02:33:23.670Z,1011.67
2016-11-02T02:34:04.354Z,1011.69
2016-11-02T02:34:45.053Z,1011.65
2016-11-02T02:35:25.732Z,1011.69
2016-11-02T02:36:06.396Z,1011.68
2016-11-02T02:36:47.149Z,1011.68
2016-11-02T02:37:27.818Z,1011.68
2016-11-02T02:38:08.492Z,1011.67
2016-11-02T02:38:49.208Z,1011.66
2016-11-02T02:39:29.943Z,1011.66
2016-11-02T02:40:10.610Z,1011.68
2016-11-02T02:40:51.286Z,1011.67
2016-11-02T02:41:31.999Z,1011.71
2016-11-02T02:42:12.674Z,1011.69
2016-11-02T02:42:53.373Z,1011.67
2016-11-02T02:43:34.064Z,1011.66
2016-11-02T02:44:14.779Z,1011.67
2016-11-02T02:44:55.511Z,1011.64
2016-11-02T02:45:36.165Z,1011.62
2016-11-02T02:46:16.871Z,1011.65
2016-11-02T02:46:57.611Z,1011.64
2016-11-02T02:47:38.261Z,1011.63
2016-11-02T02:48:18.935Z,1011.64
2016-11-02T02:48:59.622Z,1011.57
2016-11-02T02:49:40.318Z,1011.59
2016-11-02T02:50:20.999Z,1011.61
2016-11-02T02:51:01.699Z,1011.61
2016-11-02T02:51:42.350Z,1011.57
2016-11-02T02:52:23.035Z,1011.55
2016-11-02T02:53:03.727Z,1011.6
2016-11-02T02:53:44.401Z,1011.53
2016-11-02T02:54:25.118Z,1011.57
2016-11-02T02:55:05.825Z,1011.53
2016-11-02T02:55:46.480Z,1011.56
2016-11-02T02:56:27.149Z,1011.52
2016-11-02T02:57:07.857Z,1011.55
2016-11-02T02:57:48.557Z,1011.56
2016-11-02T02:58:29.207Z,1011.53
2016-11-02T02:59:09.886Z,1011.55
2016-11-02T02:59:50.524Z,1011.54
2016-11-02T03:00:31.217Z,1011.54
2016-11-02T03:01:11.899Z,1011.54
2016-11-02T03:01:52.617Z,1011.53
2016-11-02T03:02:33.283Z,1011.54
2016-11-02T03:03:14.008Z,1011.52
2016-11-02T03:03:54.671Z,1011.51
2016-11-02T03:04:35.331Z,1011.52
2016-11-02T03:05:16.911Z,1011.48
2016-11-02T03:05:57.550Z,1011.5
2016-11-02T03:06:38.267Z,1011.48
2016-11-02T03:07:18.971Z,1011.45
2016-11-02T03:07:59.658Z,1011.45
2016-11-02T03:08:40.328Z,1011.43
2016-11-02T03:09:20.972Z,1011.44
2016-11-02T03:10:01.719Z,1011.44
2016-11-02T03:10:42.372Z,1011.41
2016-11-02T03:11:23.054Z,1011.44
2016-11-02T03:12:03.698Z,1011.43
2016-11-02T03:12:44.415Z,1011.41
2016-11-02T03:13:25.096Z,1011.43
2016-11-02T03:14:05.787Z,1011.42
2016-11-02T03:14:46.492Z,1011.43
2016-11-02T03:15:27.208Z,1011.41
2016-11-02T03:16:07.889Z,1011.4
2016-11-02T03:16:48.582Z,1011.38
2016-11-02T03:17:29.268Z,1011.46
2016-11-02T03:18:09.941Z,1011.42
2016-11-02T03:18:50.602Z,1011.46
2016-11-02T03:19:31.244Z,1011.43
2016-11-02T03:20:11.909Z,1011.45
2016-11-02T03:20:52.593Z,1011.41
2016-11-02T03:21:33.261Z,1011.43
2016-11-02T03:22:13.925Z,1011.43
2016-11-02T03:22:54.629Z,1011.4
2016-11-02T03:23:35.302Z,1011.45
2016-11-02T03:24:15.986Z,1011.47
2016-11-02T03:24:56.698Z,1011.43
2016-11-02T03:25:37.392Z,1011.38
2016-11-02T03:26:18.094Z,1011.41
2016-11-02T03:26:58.793Z,1011.39
2016-11-02T03:27:39.460Z,1011.38
2016-11-02T03:28:20.105Z,1011.39
2016-11-02T03:29:00.814Z,1011.44
2016-11-02T03:29:41.487Z,1011.41
2016-11-02T03:30:22.228Z,1011.48
2016-11-02T03:31:02.949Z,1011.45
2016-11-02T03:31:43.557Z,1011.44
2016-11-02T03:32:24.267Z,1011.45
2016-11-02T03:33:04.916Z,1011.46
2016-11-02T03:33:45.570Z,1011.47
2016-11-02T03:34:26.264Z,1011.44
2016-11-02T03:35:06.957Z,1011.44
2016-11-02T03:35:47.656Z,1011.45
2016-11-02T03:36:28.337Z,1011.45
2016-11-02T03:37:09.035Z,1011.45
2016-11-02T03:37:49.690Z,1011.47
2016-11-02T03:38:30.364Z,1011.43
2016-11-02T03:39:10.998Z,1011.5
2016-11-02T03:39:51.665Z,1011.48
2016-11-02T03:40:32.361Z,1011.51
2016-11-02T03:41:13.018Z,1011.48
2016-11-02T03:41:53.638Z,1011.51
2016-11-02T03:42:34.352Z,1011.52
2016-11-02T03:43:15.056Z,1011.49
2016-11-02T03:43:55.753Z,1011.5
2016-11-02T03:44:36.446Z,1011.52
2016-11-02T03:45:17.165Z,1011.47
2016-11-02T03:45:57.865Z,1011.49
2016-11-02T03:46:38.547Z,1011.48
2016-11-02T03:47:19.220Z,1011.48
2016-11-02T03:47:59.911Z,1011.48
2016-11-02T03:48:40.606Z,1011.45
2016-11-02T03:49:21.316Z,1011.45
2016-11-02T03:50:02.044Z,1011.47
2016-11-02T03:50:42.706Z,1011.48
2016-11-02T03:51:23.367Z,1011.48
2016-11-02T03:52:04.011Z,1011.45
2016-11-02T03:52:44.678Z,1011.47
2016-11-02T03:53:25.348Z,1011.46
2016-11-02T03:54:06.049Z,1011.45
2016-11-02T03:54:46.764Z,1011.47
2016-11-02T03:55:27.489Z,1011.47
2016-11-02T03:56:08.194Z,1011.51
2016-11-02T03:56:48.858Z,1011.48
2016-11-02T03:57:29.509Z,1011.47
2016-11-02T03:58:10.162Z,1011.45
2016-11-02T03:58:50.874Z,1011.46
2016-11-02T03:59:31.605Z,1011.48
2016-11-02T04:00:12.318Z,1011.5
2016-11-02T04:00:52.983Z,1011.49
2016-11-02T04:01:33.656Z,1011.48
2016-11-02T04:02:14.353Z,1011.47
2016-11-02T04:02:55.082Z,1011.48
2016-11-02T04:03:35.766Z,1011.51
2016-11-02T04:04:16.473Z,1011.51
2016-11-02T04:04:57.143Z,1011.51
2016-11-02T04:05:37.805Z,1011.5
2016-11-02T04:06:18.519Z,1011.54
2016-11-02T04:06:59.231Z,1011.53
2016-11-02T04:07:39.921Z,1011.51
2016-11-02T04:08:20.609Z,1011.51
2016-11-02T04:09:01.281Z,1011.53
2016-11-02T04:09:41.940Z,1011.48
2016-11-02T04:10:22.581Z,1011.52
2016-11-02T04:11:03.265Z,1011.47
2016-11-02T04:11:43.954Z,1011.48
2016-11-02T04:12:24.628Z,1011.47
2016-11-02T04:13:05.316Z,1011.47
2016-11-02T04:13:45.952Z,1011.46
2016-11-02T04:14:27.435Z,1011.48
2016-11-02T04:15:07.283Z,1011.47
2016-11-02T04:15:48.013Z,1011.51
2016-11-02T04:16:28.667Z,1011.48
2016-11-02T04:17:09.344Z,1011.46
2016-11-02T04:17:50.027Z,1011.46
2016-11-02T04:18:30.703Z,1011.45
2016-11-02T04:19:11.349Z,1011.46
2016-11-02T04:19:52.030Z,1011.44
2016-11-02T04:20:32.707Z,1011.49
2016-11-02T04:21:13.387Z,1011.48
2016-11-02T04:21:54.117Z,1011.43
2016-11-02T04:22:34.729Z,1011.46
2016-11-02T04:23:15.350Z,1011.44
2016-11-02T04:23:56.040Z,1011.44
2016-11-02T04:24:36.740Z,1011.42
2016-11-02T04:25:17.441Z,1011.43
2016-11-02T04:25:58.133Z,1011.41
2016-11-02T04:26:38.771Z,1011.39
2016-11-02T04:27:19.471Z,1011.4
2016-11-02T04:28:00.169Z,1011.38
2016-11-02T04:28:40.857Z,1011.38
2016-11-02T04:29:21.558Z,1011.37
2016-11-02T04:30:02.203Z,1011.37
2016-11-02T04:30:42.868Z,1011.4
2016-11-02T04:31:23.601Z,1011.4
2016-11-02T04:32:04.330Z,1011.41
2016-11-02T04:32:45.026Z,1011.43
2016-11-02T04:33:25.709Z,1011.4
2016-11-02T04:34:06.430Z,1011.38
2016-11-02T04:34:47.079Z,1011.43
2016-11-02T04:35:27.735Z,1011.42
2016-11-02T04:36:08.397Z,1011.39
2016-11-02T04:36:49.115Z,1011.38
2016-11-02T04:37:29.831Z,1011.34
2016-11-02T04:38:10.466Z,1011.37
2016-11-02T04:38:51.144Z,1011.35
2016-11-02T04:39:31.836Z,1011.36
2016-11-02T04:40:12.468Z,1011.37
2016-11-02T04:40:53.164Z,1011.4
2016-11-02T04:41:33.863Z,1011.4
2016-11-02T04:42:14.529Z,1011.41
2016-11-02T04:42:55.253Z,1011.41
2016-11-02T04:43:35.915Z,1011.42
2016-11-02T04:44:16.595Z,1011.42
2016-11-02T04:44:57.249Z,1011.43
2016-11-02T04:45:37.925Z,1011.39
2016-11-02T04:46:18.638Z,1011.4
2016-11-02T04:46:59.348Z,1011.38
2016-11-02T04:47:39.996Z,1011.37
2016-11-02T04:48:20.643Z,1011.4
2016-11-02T04:49:01.369Z,1011.42
2016-11-02T04:49:42.035Z,1011.42
2016-11-02T04:50:22.709Z,1011.39
2016-11-02T04:51:03.411Z,1011.38
2016-11-02T04:51:44.117Z,1011.42
2016-11-02T04:52:24.790Z,1011.43
2016-11-02T04:53:05.487Z,1011.39
2016-11-02T04:53:46.176Z,1011.44
2016-11-02T04:54:26.828Z,1011.39
2016-11-02T04:55:07.539Z,1011.41
2016-11-02T04:55:48.205Z,1011.4
2016-11-02T04:56:28.874Z,1011.4
2016-11-02T04:57:09.558Z,1011.42
2016-11-02T04:57:50.243Z,1011.4
2016-11-02T04:58:30.941Z,1011.45
2016-11-02T04:59:11.637Z,1011.42
2016-11-02T04:59:52.352Z,1011.39
2016-11-02T05:00:33.037Z,1011.42
2016-11-02T05:01:13.711Z,1011.38
2016-11-02T05:01:54.445Z,1011.4
2016-11-02T05:02:35.148Z,1011.38
2016-11-02T05:03:15.804Z,1011.37
2016-11-02T05:03:56.510Z,1011.4
2016-11-02T05:04:37.264Z,1011.41
2016-11-02T05:05:17.956Z,1011.39
2016-11-02T05:05:58.671Z,1011.38
2016-11-02T05:06:39.362Z,1011.39
2016-11-02T05:07:20.062Z,1011.41
2016-11-02T05:08:00.823Z,1011.39
2016-11-02T05:08:41.530Z,1011.39
2016-11-02T05:09:22.218Z,1011.38
2016-11-02T05:10:02.896Z,1011.36
2016-11-02T05:10:43.576Z,1011.37
2016-11-02T05:11:24.277Z,1011.37
2016-11-02T05:12:04.945Z,1011.37
2016-11-02T05:12:45.637Z,1011.34
2016-11-02T05:13:26.305Z,1011.37
2016-11-02T05:14:06.988Z,1011.38
2016-11-02T05:14:47.666Z,1011.35
2016-11-02T05:15:28.323Z,1011.35
2016-11-02T05:16:09.002Z,1011.34
2016-11-02T05:16:49.743Z,1011.32
2016-11-02T05:17:30.436Z,1011.32
2016-11-02T05:18:11.126Z,1011.34
2016-11-02T05:18:51.832Z,1011.33
2016-11-02T05:19:32.540Z,1011.32
2016-11-02T05:20:13.187Z,1011.29
2016-11-02T05:20:53.859Z,1011.33
2016-11-02T05:21:34.572Z,1011.37
2016-11-02T05:22:15.234Z,1011.34
2016-11-02T05:22:55.955Z,1011.35
2016-11-02T05:23:36.648Z,1011.33
2016-11-02T05:24:17.340Z,1011.35
2016-11-02T05:24:57.993Z,1011.36
2016-11-02T05:25:38.709Z,1011.34
2016-11-02T05:26:19.371Z,1011.36
2016-11-02T05:27:00.081Z,1011.35
2016-11-02T05:27:40.781Z,1011.34
2016-11-02T05:28:21.482Z,1011.31
2016-11-02T05:29:02.168Z,1011.32
2016-11-02T05:29:42.854Z,1011.32
2016-11-02T05:30:23.512Z,1011.31
2016-11-02T05:31:04.209Z,1011.31
2016-11-02T05:31:44.885Z,1011.32
2016-11-02T05:32:25.629Z,1011.34
2016-11-02T05:33:06.263Z,1011.3
2016-11-02T05:33:46.930Z,1011.26
2016-11-02T05:34:27.632Z,1011.3
2016-11-02T05:35:08.314Z,1011.29
2016-11-02T05:35:48.986Z,1011.32
2016-11-02T05:36:29.671Z,1011.3
2016-11-02T05:37:10.370Z,1011.3
2016-11-02T05:37:51.073Z,1011.3
2016-11-02T05:38:31.750Z,1011.32
2016-11-02T05:39:12.443Z,1011.34
2016-11-02T05:39:53.106Z,1011.32
2016-11-02T05:40:33.787Z,1011.38
2016-11-02T05:41:14.451Z,1011.34
2016-11-02T05:41:55.136Z,1011.36
2016-11-02T05:42:35.852Z,1011.36
2016-11-02T05:43:16.495Z,1011.37
2016-11-02T05:43:57.152Z,1011.37
2016-11-02T05:44:37.842Z,1011.39
2016-11-02T05:45:18.512Z,1011.36
2016-11-02T05:45:59.247Z,1011.37
2016-11-02T05:46:39.939Z,1011.33
2016-11-02T05:47:20.593Z,1011.33
2016-11-02T05:48:01.260Z,1011.33
2016-11-02T05:48:41.998Z,1011.31
2016-11-02T05:49:22.675Z,1011.34
2016-11-02T05:50:03.384Z,1011.36
2016-11-02T05:50:44.059Z,1011.37
2016-11-02T05:51:24.799Z,1011.34
2016-11-02T05:52:05.469Z,1011.33
2016-11-02T05:52:46.171Z,1011.35
2016-11-02T05:53:26.839Z,1011.36
2016-11-02T05:54:07.543Z,1011.35
2016-11-02T05:54:48.238Z,1011.36
2016-11-02T05:55:28.934Z,1011.37
2016-11-02T05:56:09.589Z,1011.35
2016-11-02T05:56:50.257Z,1011.35
2016-11-02T05:57:30.949Z,1011.34
2016-11-02T05:58:11.580Z,1011.36
2016-11-02T05:58:52.257Z,1011.35
2016-11-02T05:59:32.965Z,1011.36
2016-11-02T06:00:13.614Z,1011.39
2016-11-02T06:00:54.307Z,1011.37
2016-11-02T06:01:34.984Z,1011.37
2016-11-02T06:02:15.643Z,1011.4
2016-11-02T06:02:56.320Z,1011.37
2016-11-02T06:03:37.023Z,1011.36
2016-11-02T06:04:17.694Z,1011.4
2016-11-02T06:04:58.412Z,1011.41
2016-11-02T06:05:39.091Z,1011.39
2016-11-02T06:06:19.772Z,1011.43
2016-11-02T06:07:00.465Z,1011.39
2016-11-02T06:07:41.159Z,1011.34
2016-11-02T06:08:21.855Z,1011.39
2016-11-02T06:09:02.553Z,1011.4
2016-11-02T06:09:43.248Z,1011.43
2016-11-02T06:10:23.907Z,1011.43
2016-11-02T06:11:04.604Z,1011.47
2016-11-02T06:11:45.323Z,1011.46
2016-11-02T06:12:25.999Z,1011.48
2016-11-02T06:13:06.672Z,1011.48
2016-11-02T06:13:47.323Z,1011.48
2016-11-02T06:14:27.999Z,1011.46
2016-11-02T06:15:08.664Z,1011.47
2016-11-02T06:15:49.385Z,1011.47
2016-11-02T06:16:30.047Z,1011.45
2016-11-02T06:17:10.701Z,1011.46
2016-11-02T06:17:51.376Z,1011.43
2016-11-02T06:18:32.072Z,1011.45
2016-11-02T06:19:12.783Z,1011.45
2016-11-02T06:19:53.461Z,1011.46
2016-11-02T06:20:34.117Z,1011.43
2016-11-02T06:21:14.798Z,1011.47
2016-11-02T06:21:55.495Z,1011.44
2016-11-02T06:22:36.225Z,1011.46
2016-11-02T06:23:16.909Z,1011.43
2016-11-02T06:23:57.593Z,1011.48
2016-11-02T06:24:38.267Z,1011.47
2016-11-02T06:25:18.916Z,1011.46
2016-11-02T06:25:59.595Z,1011.44
2016-11-02T06:26:40.268Z,1011.49
2016-11-02T06:27:20.959Z,1011.46
2016-11-02T06:28:01.639Z,1011.43
2016-11-02T06:28:42.291Z,1011.42
2016-11-02T06:29:22.981Z,1011.46
2016-11-02T06:30:03.647Z,1011.41
2016-11-02T06:30:44.364Z,1011.47
2016-11-02T06:31:25.061Z,1011.47
2016-11-02T06:32:05.697Z,1011.48
2016-11-02T06:32:46.412Z,1011.47
2016-11-02T06:33:27.109Z,1011.48
2016-11-02T06:34:07.736Z,1011.49
2016-11-02T06:34:48.435Z,1011.48
2016-11-02T06:35:29.117Z,1011.51
2016-11-02T06:36:09.804Z,1011.53
2016-11-02T06:36:50.494Z,1011.51
2016-11-02T06:37:31.192Z,1011.52
2016-11-02T06:38:11.861Z,1011.51
2016-11-02T06:38:52.529Z,1011.55
2016-11-02T06:39:33.251Z,1011.54
2016-11-02T06:40:13.949Z,1011.55
2016-11-02T06:40:54.644Z,1011.59
2016-11-02T06:41:35.378Z,1011.59
2016-11-02T06:42:16.033Z,1011.57
2016-11-02T06:42:56.726Z,1011.58
2016-11-02T06:43:37.446Z,1011.58
2016-11-02T06:44:18.177Z,1011.58
2016-11-02T06:44:58.872Z,1011.57
2016-11-02T06:45:39.551Z,1011.56
2016-11-02T06:46:20.271Z,1011.56
2016-11-02T06:47:00.926Z,1011.56
2016-11-02T06:47:41.571Z,1011.59
2016-11-02T06:48:22.290Z,1011.61
2016-11-02T06:49:02.940Z,1011.6
2016-11-02T06:49:43.613Z,1011.58
2016-11-02T06:50:24.312Z,1011.6
2016-11-02T06:51:04.976Z,1011.57
2016-11-02T06:51:45.680Z,1011.61
2016-11-02T06:52:26.404Z,1011.61
2016-11-02T06:53:07.094Z,1011.6
2016-11-02T06:53:47.794Z,1011.61
2016-11-02T06:54:28.444Z,1011.59
2016-11-02T06:55:09.141Z,1011.63
2016-11-02T06:55:49.876Z,1011.64
2016-11-02T06:56:30.576Z,1011.64
2016-11-02T06:57:11.294Z,1011.65
2016-11-02T06:57:52.008Z,1011.64
2016-11-02T06:58:32.728Z,1011.68
2016-11-02T06:59:14.234Z,1011.68
2016-11-02T06:59:54.898Z,1011.71
2016-11-02T07:00:35.560Z,1011.7
2016-11-02T07:01:16.208Z,1011.69
2016-11-02T07:01:56.950Z,1011.72
2016-11-02T07:31:21.434Z,1011.84
2016-11-02T07:32:02.081Z,1011.86
2016-11-02T07:32:42.750Z,1011.89
2016-11-02T07:33:23.438Z,1011.88
2016-11-02T07:34:04.086Z,1011.86
2016-11-02T07:34:44.791Z,1011.88
2016-11-02T07:35:25.417Z,1011.87
2016-11-02T07:36:06.111Z,1011.85
2016-11-02T07:36:46.815Z,1011.86
2016-11-02T07:37:27.464Z,1011.88
2016-11-02T07:38:08.146Z,1011.88
2016-11-02T07:38:48.829Z,1011.88
2016-11-02T07:39:29.535Z,1011.86
2016-11-02T07:40:10.213Z,1011.85
2016-11-02T07:40:51.778Z,1011.85
2016-11-02T07:41:33.178Z,1011.84
2016-11-02T07:42:13.875Z,1011.89
2016-11-02T07:42:54.532Z,1011.85
2016-11-02T07:43:35.266Z,1011.84
2016-11-02T07:44:15.982Z,1011.91
2016-11-02T07:44:56.676Z,1011.9
2016-11-02T07:45:37.350Z,1011.89
2016-11-02T07:46:18.068Z,1011.93
2016-11-02T07:46:58.718Z,1011.94
2016-11-02T07:47:39.407Z,1011.91
2016-11-02T07:48:20.098Z,1011.92
2016-11-02T07:49:00.781Z,1011.93
2016-11-02T07:49:41.487Z,1011.9
2016-11-02T07:50:22.146Z,1011.87
2016-11-02T07:51:02.831Z,1011.91
2016-11-02T07:51:43.492Z,1011.92
2016-11-02T07:52:24.872Z,1011.92
2016-11-02T07:53:05.536Z,1011.92
2016-11-02T07:53:46.199Z,1011.9
2016-11-02T07:54:26.923Z,1011.95
2016-11-02T07:55:07.600Z,1011.93
2016-11-02T07:55:48.314Z,1011.94
2016-11-02T07:56:28.977Z,1011.94
2016-11-02T07:57:09.678Z,1011.95
2016-11-02T07:57:50.404Z,1011.97
2016-11-02T07:58:31.066Z,1011.94
2016-11-02T07:59:11.753Z,1011.97
2016-11-02T07:59:52.464Z,1011.98
2016-11-02T08:00:33.233Z,1011.97
2016-11-02T08:01:13.906Z,1011.97
2016-11-02T08:01:54.601Z,1012
2016-11-02T08:02:35.483Z,1011.96
2016-11-02T08:03:16.186Z,1011.96
2016-11-02T08:03:56.944Z,1011.98
2016-11-02T08:04:37.606Z,1011.97
2016-11-02T08:05:18.279Z,1011.96
2016-11-02T08:05:58.919Z,1011.98
2016-11-02T08:06:39.592Z,1012.02
2016-11-02T08:07:20.310Z,1011.98
2016-11-02T08:08:00.998Z,1011.98
2016-11-02T08:08:41.703Z,1011.97
2016-11-02T08:09:22.388Z,1011.97
2016-11-02T08:10:03.266Z,1011.96
2016-11-02T08:10:43.967Z,1011.95
2016-11-02T08:11:24.720Z,1011.93
2016-11-02T08:12:05.387Z,1011.95
2016-11-02T08:12:46.059Z,1012
2016-11-02T08:13:26.825Z,1011.95
2016-11-02T08:14:07.475Z,1011.97
2016-11-02T08:14:48.142Z,1011.98
2016-11-02T08:15:28.784Z,1011.99
2016-11-02T08:16:09.441Z,1011.97
2016-11-02T08:16:50.166Z,1011.95
2016-11-02T08:17:31.654Z,1011.94
2016-11-02T08:18:11.493Z,1011.97
2016-11-02T08:18:52.171Z,1011.95
2016-11-02T08:19:32.912Z,1011.94
2016-11-02T08:20:13.563Z,1011.96
2016-11-02T08:20:54.245Z,1011.93
2016-11-02T08:21:34.920Z,1011.92
2016-11-02T08:22:16.168Z,1011.95
2016-11-02T08:22:56.931Z,1011.95
2016-11-02T08:23:37.652Z,1011.97
2016-11-02T08:24:18.339Z,1011.95
2016-11-02T08:24:58.986Z,1011.94
2016-11-02T08:25:39.693Z,1011.93
2016-11-02T08:26:20.441Z,1011.95
2016-11-02T08:27:01.099Z,1011.95
2016-11-02T08:27:42.672Z,1011.92
2016-11-02T08:28:22.528Z,1011.95
2016-11-02T08:29:03.237Z,1011.92
2016-11-02T08:29:43.934Z,1011.95
2016-11-02T08:30:24.625Z,1011.95
2016-11-02T08:31:05.342Z,1011.96
2016-11-02T08:31:46.021Z,1011.97
2016-11-02T08:32:26.690Z,1011.98
2016-11-02T08:33:07.368Z,1011.95
2016-11-02T08:33:48.075Z,1012
2016-11-02T08:34:29.601Z,1012.02
2016-11-02T08:35:11.164Z,1011.98
2016-11-02T08:35:50.990Z,1011.98
2016-11-02T08:36:31.687Z,1011.98
2016-11-02T08:37:12.418Z,1011.99
2016-11-02T08:37:53.049Z,1011.99
2016-11-02T08:38:33.769Z,1011.97
2016-11-02T08:39:14.408Z,1012.03
2016-11-02T08:39:55.080Z,1012.04
2016-11-02T08:40:35.815Z,1012.04
2016-11-02T08:41:16.551Z,1012.01
2016-11-02T08:41:57.243Z,1012.02
2016-11-02T08:42:37.902Z,1012.02